sensor_id;sensor_type;location;lat;lon;timestamp;pressure;altitude;pressure_sealevel;temperature;humidity
10852;BME280;5479;52.046;6.314;2022-12-18T00:01:28;102866.50;;;-5.80;100.00
10852;BME280;5479;52.046;6.314;2022-12-18T00:03:58;102867.72;;;-5.94;100.00
10852;BME280;5479;52.046;6.314;2022-12-18T00:06:27;102856.81;;;-5.87;100.00
10852;BME280;5479;52.046;6.314;2022-12-18T00:08:57;102862.72;;;-5.90;100.00
10852;BME280;5479;52.046;6.314;2022-12-18T00:11:26;102871.19;;;-5.94;100.00
10852;BME280;5479;52.046;6.314;2022-12-18T00:13:57;102874.25;;;-5.80;100.00
10852;BME280;5479;52.046;6.314;2022-12-18T00:16:27;102879.97;;;-5.67;100.00
10852;BME280;5479;52.046;6.314;2022-12-18T00:18:56;102873.59;;;-5.54;100.00
10852;BME280;5479;52.046;6.314;2022-12-18T00:21:26;102869.38;;;-5.52;100.00
10852;BME280;5479;52.046;6.314;2022-12-18T00:23:54;102868.78;;;-5.45;100.00
10852;BME280;5479;52.046;6.314;2022-12-18T00:26:25;102858.97;;;-5.54;100.00
10852;BME280;5479;52.046;6.314;2022-12-18T00:28:53;102871.03;;;-5.54;100.00
10852;BME280;5479;52.046;6.314;2022-12-18T00:31:24;102864.56;;;-5.65;100.00
10852;BME280;5479;52.046;6.314;2022-12-18T00:33:53;102854.75;;;-5.96;100.00
10852;BME280;5479;52.046;6.314;2022-12-18T00:36:24;102846.13;;;-6.17;100.00
10852;BME280;5479;52.046;6.314;2022-12-18T00:38:53;102851.28;;;-6.17;100.00
10852;BME280;5479;52.046;6.314;2022-12-18T00:41:22;102846.88;;;-6.20;100.00
10852;BME280;5479;52.046;6.314;2022-12-18T00:44:09;102850.31;;;-6.21;100.00
10852;BME280;5479;52.046;6.314;2022-12-18T00:46:39;102853.81;;;-6.19;100.00
10852;BME280;5479;52.046;6.314;2022-12-18T00:49:08;102848.78;;;-5.95;100.00
10852;BME280;5479;52.046;6.314;2022-12-18T00:51:36;102853.09;;;-5.72;100.00
10852;BME280;5479;52.046;6.314;2022-12-18T00:54:04;102855.94;;;-5.66;100.00
10852;BME280;5479;52.046;6.314;2022-12-18T00:56:31;102859.16;;;-5.71;100.00
10852;BME280;5479;52.046;6.314;2022-12-18T00:58:59;102850.00;;;-5.63;100.00
10852;BME280;5479;52.046;6.314;2022-12-18T01:01:27;102850.13;;;-5.60;100.00
10852;BME280;5479;52.046;6.314;2022-12-18T01:03:56;102851.44;;;-5.70;100.00
10852;BME280;5479;52.046;6.314;2022-12-18T01:06:26;102855.94;;;-5.88;100.00
10852;BME280;5479;52.046;6.314;2022-12-18T01:08:54;102844.69;;;-6.10;100.00
10852;BME280;5479;52.046;6.314;2022-12-18T01:11:22;102846.44;;;-6.30;100.00
10852;BME280;5479;52.046;6.314;2022-12-18T01:13:51;102841.41;;;-6.48;100.00
10852;BME280;5479;52.046;6.314;2022-12-18T01:16:19;102846.13;;;-6.58;100.00
10852;BME280;5479;52.046;6.314;2022-12-18T01:18:50;102852.41;;;-6.52;100.00
10852;BME280;5479;52.046;6.314;2022-12-18T01:21:21;102848.88;;;-6.54;100.00
10852;BME280;5479;52.046;6.314;2022-12-18T01:23:51;102846.97;;;-6.58;100.00
10852;BME280;5479;52.046;6.314;2022-12-18T01:26:20;102839.94;;;-6.62;100.00
10852;BME280;5479;52.046;6.314;2022-12-18T01:28:48;102837.06;;;-6.49;100.00
10852;BME280;5479;52.046;6.314;2022-12-18T01:31:18;102844.22;;;-6.42;100.00
10852;BME280;5479;52.046;6.314;2022-12-18T01:33:48;102848.97;;;-6.32;100.00
10852;BME280;5479;52.046;6.314;2022-12-18T01:36:20;102836.31;;;-6.26;100.00
10852;BME280;5479;52.046;6.314;2022-12-18T01:38:49;102837.69;;;-6.34;100.00
10852;BME280;5479;52.046;6.314;2022-12-18T01:41:18;102831.91;;;-6.28;100.00
10852;BME280;5479;52.046;6.314;2022-12-18T01:43:51;102842.47;;;-6.22;100.00
10852;BME280;5479;52.046;6.314;2022-12-18T01:46:21;102840.00;;;-6.21;100.00
10852;BME280;5479;52.046;6.314;2022-12-18T01:48:56;102826.44;;;-6.15;100.00
10852;BME280;5479;52.046;6.314;2022-12-18T01:51:27;102833.06;;;-6.22;100.00
10852;BME280;5479;52.046;6.314;2022-12-18T01:53:55;102830.53;;;-6.41;100.00
10852;BME280;5479;52.046;6.314;2022-12-18T01:56:23;102844.22;;;-6.42;100.00
10852;BME280;5479;52.046;6.314;2022-12-18T01:58:54;102845.56;;;-6.31;100.00
10852;BME280;5479;52.046;6.314;2022-12-18T02:01:25;102858.44;;;-6.31;100.00
10852;BME280;5479;52.046;6.314;2022-12-18T02:03:53;102848.28;;;-6.28;100.00
10852;BME280;5479;52.046;6.314;2022-12-18T02:06:29;102849.09;;;-6.29;100.00
10852;BME280;5479;52.046;6.314;2022-12-18T02:09:08;102835.63;;;-6.42;100.00
10852;BME280;5479;52.046;6.314;2022-12-18T02:11:42;102840.72;;;-6.44;100.00
10852;BME280;5479;52.046;6.314;2022-12-18T02:14:25;102852.13;;;-6.58;100.00
10852;BME280;5479;52.046;6.314;2022-12-18T02:17:00;102852.63;;;-6.66;100.00
10852;BME280;5479;52.046;6.314;2022-12-18T02:19:43;102849.84;;;-6.71;100.00
10852;BME280;5479;52.046;6.314;2022-12-18T02:22:25;102847.03;;;-6.77;100.00
10852;BME280;5479;52.046;6.314;2022-12-18T02:25:05;102842.81;;;-6.75;100.00
10852;BME280;5479;52.046;6.314;2022-12-18T02:27:41;102842.81;;;-6.75;100.00
10852;BME280;5479;52.046;6.314;2022-12-18T02:30:13;102836.03;;;-6.73;100.00
10852;BME280;5479;52.046;6.314;2022-12-18T02:32:46;102843.88;;;-6.70;100.00
10852;BME280;5479;52.046;6.314;2022-12-18T02:35:19;102839.66;;;-6.68;100.00
10852;BME280;5479;52.046;6.314;2022-12-18T02:37:48;102841.75;;;-6.59;100.00
10852;BME280;5479;52.046;6.314;2022-12-18T02:40:17;102843.16;;;-6.47;100.00
10852;BME280;5479;52.046;6.314;2022-12-18T02:42:50;102852.41;;;-6.31;100.00
10852;BME280;5479;52.046;6.314;2022-12-18T02:45:18;102845.31;;;-6.37;100.00
10852;BME280;5479;52.046;6.314;2022-12-18T02:47:48;102848.88;;;-6.33;100.00
10852;BME280;5479;52.046;6.314;2022-12-18T02:50:22;102845.50;;;-6.32;100.00
10852;BME280;5479;52.046;6.314;2022-12-18T02:53:01;102854.94;;;-6.33;100.00
10852;BME280;5479;52.046;6.314;2022-12-18T02:55:41;102850.03;;;-6.27;100.00
10852;BME280;5479;52.046;6.314;2022-12-18T02:58:19;102851.91;;;-6.23;100.00
10852;BME280;5479;52.046;6.314;2022-12-18T03:00:51;102848.78;;;-6.16;100.00
10852;BME280;5479;52.046;6.314;2022-12-18T03:03:25;102844.25;;;-6.21;100.00
10852;BME280;5479;52.046;6.314;2022-12-18T03:06:01;102835.56;;;-6.02;100.00
10852;BME280;5479;52.046;6.314;2022-12-18T03:08:35;102834.19;;;-5.94;100.00
10852;BME280;5479;52.046;6.314;2022-12-18T03:11:08;102834.88;;;-5.98;100.00
10852;BME280;5479;52.046;6.314;2022-12-18T03:13:41;102836.69;;;-6.17;100.00
10852;BME280;5479;52.046;6.314;2022-12-18T03:16:14;102844.88;;;-6.27;100.00
10852;BME280;5479;52.046;6.314;2022-12-18T03:18:46;102843.56;;;-6.38;100.00
10852;BME280;5479;52.046;6.314;2022-12-18T03:21:19;102845.72;;;-6.47;100.00
10852;BME280;5479;52.046;6.314;2022-12-18T03:23:50;102842.78;;;-6.56;100.00
10852;BME280;5479;52.046;6.314;2022-12-18T03:26:23;102835.44;;;-6.66;100.00
10852;BME280;5479;52.046;6.314;2022-12-18T03:28:59;102831.75;;;-6.72;100.00
10852;BME280;5479;52.046;6.314;2022-12-18T03:31:29;102822.75;;;-6.82;100.00
10852;BME280;5479;52.046;6.314;2022-12-18T03:34:02;102824.03;;;-6.92;100.00
10852;BME280;5479;52.046;6.314;2022-12-18T03:36:32;102818.09;;;-6.91;100.00
10852;BME280;5479;52.046;6.314;2022-12-18T03:39:00;102814.34;;;-6.78;100.00
10852;BME280;5479;52.046;6.314;2022-12-18T03:41:31;102815.88;;;-6.82;100.00
10852;BME280;5479;52.046;6.314;2022-12-18T03:44:06;102807.97;;;-6.86;100.00
10852;BME280;5479;52.046;6.314;2022-12-18T03:46:42;102806.03;;;-6.71;100.00
10852;BME280;5479;52.046;6.314;2022-12-18T03:49:21;102803.72;;;-6.65;100.00
10852;BME280;5479;52.046;6.314;2022-12-18T03:51:54;102796.69;;;-6.69;100.00
10852;BME280;5479;52.046;6.314;2022-12-18T03:54:26;102802.78;;;-6.67;100.00
10852;BME280;5479;52.046;6.314;2022-12-18T03:57:01;102799.69;;;-6.79;100.00
10852;BME280;5479;52.046;6.314;2022-12-18T03:59:34;102804.72;;;-6.82;100.00
10852;BME280;5479;52.046;6.314;2022-12-18T04:02:04;102797.94;;;-6.80;100.00
10852;BME280;5479;52.046;6.314;2022-12-18T04:04:34;102811.63;;;-6.81;100.00
10852;BME280;5479;52.046;6.314;2022-12-18T04:07:03;102809.88;;;-6.82;100.00
10852;BME280;5479;52.046;6.314;2022-12-18T04:09:33;102809.88;;;-6.82;100.00
10852;BME280;5479;52.046;6.314;2022-12-18T04:12:02;102809.88;;;-6.82;100.00
10852;BME280;5479;52.046;6.314;2022-12-18T04:14:30;102802.94;;;-6.83;100.00
10852;BME280;5479;52.046;6.314;2022-12-18T04:17:03;102805.22;;;-6.70;100.00
10852;BME280;5479;52.046;6.314;2022-12-18T04:19:31;102817.72;;;-6.79;100.00
10852;BME280;5479;52.046;6.314;2022-12-18T04:21:59;102808.09;;;-6.83;100.00
10852;BME280;5479;52.046;6.314;2022-12-18T04:24:27;102802.41;;;-6.95;100.00
10852;BME280;5479;52.046;6.314;2022-12-18T04:26:55;102809.19;;;-6.97;100.00
10852;BME280;5479;52.046;6.314;2022-12-18T04:29:22;102806.34;;;-7.03;100.00
10852;BME280;5479;52.046;6.314;2022-12-18T04:31:50;102800.06;;;-7.10;100.00
10852;BME280;5479;52.046;6.314;2022-12-18T04:34:23;102790.78;;;-7.06;100.00
10852;BME280;5479;52.046;6.314;2022-12-18T04:36:51;102784.75;;;-7.07;100.00
10852;BME280;5479;52.046;6.314;2022-12-18T04:39:19;102789.94;;;-7.05;100.00
10852;BME280;5479;52.046;6.314;2022-12-18T04:41:47;102791.44;;;-7.10;100.00
10852;BME280;5479;52.046;6.314;2022-12-18T04:44:15;102787.00;;;-7.14;100.00
10852;BME280;5479;52.046;6.314;2022-12-18T04:46:43;102769.72;;;-7.17;100.00
10852;BME280;5479;52.046;6.314;2022-12-18T04:49:11;102783.25;;;-7.21;100.00
10852;BME280;5479;52.046;6.314;2022-12-18T04:51:40;102781.75;;;-7.16;100.00
10852;BME280;5479;52.046;6.314;2022-12-18T04:54:09;102781.19;;;-7.09;100.00
10852;BME280;5479;52.046;6.314;2022-12-18T04:56:36;102784.53;;;-7.11;100.00
10852;BME280;5479;52.046;6.314;2022-12-18T04:59:05;102778.28;;;-6.97;100.00
10852;BME280;5479;52.046;6.314;2022-12-18T05:01:32;102781.56;;;-7.01;100.00
10852;BME280;5479;52.046;6.314;2022-12-18T05:04:01;102784.28;;;-6.98;100.00
10852;BME280;5479;52.046;6.314;2022-12-18T05:06:29;102784.94;;;-7.02;100.00
10852;BME280;5479;52.046;6.314;2022-12-18T05:08:58;102775.38;;;-7.05;100.00
10852;BME280;5479;52.046;6.314;2022-12-18T05:11:26;102787.56;;;-7.01;100.00
10852;BME280;5479;52.046;6.314;2022-12-18T05:13:56;102782.78;;;-6.93;100.00
10852;BME280;5479;52.046;6.314;2022-12-18T05:16:23;102779.44;;;-6.91;100.00
10852;BME280;5479;52.046;6.314;2022-12-18T05:18:53;102776.03;;;-6.90;100.00
10852;BME280;5479;52.046;6.314;2022-12-18T05:21:21;102777.34;;;-6.80;100.00
10852;BME280;5479;52.046;6.314;2022-12-18T05:23:50;102786.94;;;-6.76;100.00
10852;BME280;5479;52.046;6.314;2022-12-18T05:26:19;102785.28;;;-6.74;100.00
10852;BME280;5479;52.046;6.314;2022-12-18T05:28:47;102798.44;;;-6.68;100.00
10852;BME280;5479;52.046;6.314;2022-12-18T05:31:16;102798.66;;;-6.63;100.00
10852;BME280;5479;52.046;6.314;2022-12-18T05:33:46;102798.44;;;-6.68;100.00
10852;BME280;5479;52.046;6.314;2022-12-18T05:36:13;102818.31;;;-6.65;100.00
10852;BME280;5479;52.046;6.314;2022-12-18T05:38:42;102825.09;;;-6.67;100.00
10852;BME280;5479;52.046;6.314;2022-12-18T05:41:10;102822.56;;;-6.66;100.00
10852;BME280;5479;52.046;6.314;2022-12-18T05:43:39;102838.31;;;-6.60;100.00
10852;BME280;5479;52.046;6.314;2022-12-18T05:46:11;102840.06;;;-6.59;100.00
10852;BME280;5479;52.046;6.314;2022-12-18T05:48:40;102840.06;;;-6.59;100.00
10852;BME280;5479;52.046;6.314;2022-12-18T05:51:10;102840.06;;;-6.59;100.00
10852;BME280;5479;52.046;6.314;2022-12-18T05:53:38;102847.81;;;-6.59;100.00
10852;BME280;5479;52.046;6.314;2022-12-18T05:56:09;102840.22;;;-6.56;100.00
10852;BME280;5479;52.046;6.314;2022-12-18T05:58:39;102838.13;;;-6.64;100.00
10852;BME280;5479;52.046;6.314;2022-12-18T06:01:10;102832.78;;;-6.69;100.00
10852;BME280;5479;52.046;6.314;2022-12-18T06:03:38;102826.88;;;-6.66;100.00
10852;BME280;5479;52.046;6.314;2022-12-18T06:06:13;102834.25;;;-6.74;100.00
10852;BME280;5479;52.046;6.314;2022-12-18T06:08:43;102818.41;;;-6.83;100.00
10852;BME280;5479;52.046;6.314;2022-12-18T06:11:11;102818.41;;;-6.83;100.00
10852;BME280;5479;52.046;6.314;2022-12-18T06:13:41;102813.53;;;-6.77;100.00
10852;BME280;5479;52.046;6.314;2022-12-18T06:16:09;102816.03;;;-6.79;100.00
10852;BME280;5479;52.046;6.314;2022-12-18T06:18:37;102803.09;;;-6.80;100.00
10852;BME280;5479;52.046;6.314;2022-12-18T06:21:05;102799.00;;;-6.75;100.00
10852;BME280;5479;52.046;6.314;2022-12-18T06:23:33;102802.59;;;-6.71;100.00
10852;BME280;5479;52.046;6.314;2022-12-18T06:26:04;102804.34;;;-6.70;100.00
10852;BME280;5479;52.046;6.314;2022-12-18T06:28:32;102794.94;;;-6.70;100.00
10852;BME280;5479;52.046;6.314;2022-12-18T06:31:02;102794.63;;;-6.57;100.00
10852;BME280;5479;52.046;6.314;2022-12-18T06:33:30;102793.38;;;-6.46;100.00
10852;BME280;5479;52.046;6.314;2022-12-18T06:36:00;102790.81;;;-6.46;100.00
10852;BME280;5479;52.046;6.314;2022-12-18T06:38:28;102792.56;;;-6.45;100.00
10852;BME280;5479;52.046;6.314;2022-12-18T06:40:56;102796.09;;;-6.43;100.00
10852;BME280;5479;52.046;6.314;2022-12-18T06:43:25;102791.91;;;-6.39;100.00
10852;BME280;5479;52.046;6.314;2022-12-18T06:45:58;102790.03;;;-6.43;100.00
10852;BME280;5479;52.046;6.314;2022-12-18T06:48:28;102779.34;;;-6.52;100.00
10852;BME280;5479;52.046;6.314;2022-12-18T06:50:55;102780.09;;;-6.55;100.00
10852;BME280;5479;52.046;6.314;2022-12-18T06:53:24;102782.75;;;-6.53;100.00
10852;BME280;5479;52.046;6.314;2022-12-18T06:55:50;102783.38;;;-6.59;100.00
10852;BME280;5479;52.046;6.314;2022-12-18T06:58:18;102769.56;;;-6.61;100.00
10852;BME280;5479;52.046;6.314;2022-12-18T07:00:46;102775.06;;;-6.52;100.00
10852;BME280;5479;52.046;6.314;2022-12-18T07:03:15;102769.78;;;-6.55;100.00
10852;BME280;5479;52.046;6.314;2022-12-18T07:05:47;102763.69;;;-6.57;100.00
10852;BME280;5479;52.046;6.314;2022-12-18T07:08:15;102756.91;;;-6.55;100.00
10852;BME280;5479;52.046;6.314;2022-12-18T07:10:43;102757.28;;;-6.46;100.00
10852;BME280;5479;52.046;6.314;2022-12-18T07:13:11;102756.59;;;-6.42;100.00
10852;BME280;5479;52.046;6.314;2022-12-18T07:15:39;102755.09;;;-6.37;100.00
10852;BME280;5479;52.046;6.314;2022-12-18T07:18:07;102758.84;;;-6.49;100.00
10852;BME280;5479;52.046;6.314;2022-12-18T07:20:36;102758.84;;;-6.49;100.00
10852;BME280;5479;52.046;6.314;2022-12-18T07:23:05;102764.00;;;-6.49;100.00
10852;BME280;5479;52.046;6.314;2022-12-18T07:25:34;102758.34;;;-6.41;100.00
10852;BME280;5479;52.046;6.314;2022-12-18T07:28:02;102756.03;;;-6.35;100.00
10852;BME280;5479;52.046;6.314;2022-12-18T07:30:30;102750.41;;;-6.25;100.00
10852;BME280;5479;52.046;6.314;2022-12-18T07:32:58;102757.97;;;-6.29;100.00
10852;BME280;5479;52.046;6.314;2022-12-18T07:35:26;102762.13;;;-6.33;100.00
10852;BME280;5479;52.046;6.314;2022-12-18T07:37:54;102763.63;;;-6.38;100.00
10852;BME280;5479;52.046;6.314;2022-12-18T07:40:24;102761.88;;;-6.39;100.00
10852;BME280;5479;52.046;6.314;2022-12-18T07:42:51;102758.22;;;-6.44;100.00
10852;BME280;5479;52.046;6.314;2022-12-18T07:45:20;102753.69;;;-6.49;100.00
10852;BME280;5479;52.046;6.314;2022-12-18T07:47:47;102769.91;;;-6.52;100.00
10852;BME280;5479;52.046;6.314;2022-12-18T07:50:16;102766.41;;;-6.54;100.00
10852;BME280;5479;52.046;6.314;2022-12-18T07:52:44;102768.22;;;-6.51;100.00
10852;BME280;5479;52.046;6.314;2022-12-18T07:55:13;102761.50;;;-6.48;100.00
10852;BME280;5479;52.046;6.314;2022-12-18T07:57:46;102761.63;;;-6.45;100.00
10852;BME280;5479;52.046;6.314;2022-12-18T08:00:15;102759.50;;;-6.34;100.00
10852;BME280;5479;52.046;6.314;2022-12-18T08:02:43;102751.00;;;-6.09;100.00
10852;BME280;5479;52.046;6.314;2022-12-18T08:05:11;102749.63;;;-5.78;100.00
10852;BME280;5479;52.046;6.314;2022-12-18T08:07:39;102740.19;;;-5.77;100.00
10852;BME280;5479;52.046;6.314;2022-12-18T08:10:08;102720.84;;;-5.66;100.00
10852;BME280;5479;52.046;6.314;2022-12-18T08:12:38;102716.72;;;-5.61;100.00
10852;BME280;5479;52.046;6.314;2022-12-18T08:15:08;102710.13;;;-5.53;100.00
10852;BME280;5479;52.046;6.314;2022-12-18T08:17:37;102699.94;;;-5.50;100.00
10852;BME280;5479;52.046;6.314;2022-12-18T08:20:05;102695.50;;;-5.54;100.00
10852;BME280;5479;52.046;6.314;2022-12-18T08:22:34;102692.41;;;-5.44;100.00
10852;BME280;5479;52.046;6.314;2022-12-18T08:25:02;102692.66;;;-5.36;100.00
10852;BME280;5479;52.046;6.314;2022-12-18T08:27:32;102697.84;;;-5.36;100.00
10852;BME280;5479;52.046;6.314;2022-12-18T08:30:03;102690.81;;;-5.40;100.00
10852;BME280;5479;52.046;6.314;2022-12-18T08:32:32;102689.06;;;-5.41;100.00
10852;BME280;5479;52.046;6.314;2022-12-18T08:35:00;102702.13;;;-5.37;100.00
10852;BME280;5479;52.046;6.314;2022-12-18T08:37:28;102701.56;;;-5.28;100.00
10852;BME280;5479;52.046;6.314;2022-12-18T08:39:56;102712.28;;;-5.18;100.00
10852;BME280;5479;52.046;6.314;2022-12-18T08:42:24;102698.72;;;-5.11;100.00
10852;BME280;5479;52.046;6.314;2022-12-18T08:45:09;102698.06;;;-5.05;100.00
10852;BME280;5479;52.046;6.314;2022-12-18T08:47:39;102689.75;;;-4.97;100.00
10852;BME280;5479;52.046;6.314;2022-12-18T08:50:08;102686.41;;;-4.94;100.00
10852;BME280;5479;52.046;6.314;2022-12-18T08:52:37;102680.53;;;-4.90;100.00
10852;BME280;5479;52.046;6.314;2022-12-18T08:55:06;102691.31;;;-4.76;100.00
10852;BME280;5479;52.046;6.314;2022-12-18T08:57:34;102692.44;;;-4.68;100.00
10852;BME280;5479;52.046;6.314;2022-12-18T09:00:04;102691.06;;;-4.57;100.00
10852;BME280;5479;52.046;6.314;2022-12-18T09:02:32;102697.28;;;-4.52;100.00
10852;BME280;5479;52.046;6.314;2022-12-18T09:05:02;102703.41;;;-4.49;100.00
10852;BME280;5479;52.046;6.314;2022-12-18T09:07:30;102707.91;;;-4.43;100.00
10852;BME280;5479;52.046;6.314;2022-12-18T09:09:58;102713.22;;;-4.39;100.00
10852;BME280;5479;52.046;6.314;2022-12-18T09:12:26;102706.25;;;-4.41;100.00
10852;BME280;5479;52.046;6.314;2022-12-18T09:14:57;102707.34;;;-4.33;100.00
10852;BME280;5479;52.046;6.314;2022-12-18T09:17:25;102702.19;;;-4.33;100.00
10852;BME280;5479;52.046;6.314;2022-12-18T09:19:53;102702.59;;;-4.21;100.00
10852;BME280;5479;52.046;6.314;2022-12-18T09:22:22;102699.75;;;-4.00;100.00
10852;BME280;5479;52.046;6.314;2022-12-18T09:24:58;102695.78;;;-3.89;100.00
10852;BME280;5479;52.046;6.314;2022-12-18T09:27:26;102695.53;;;-3.69;100.00
10852;BME280;5479;52.046;6.314;2022-12-18T09:29:54;102689.38;;;-3.42;100.00
10852;BME280;5479;52.046;6.314;2022-12-18T09:32:22;102682.31;;;-3.17;100.00
10852;BME280;5479;52.046;6.314;2022-12-18T09:34:50;102680.53;;;-3.19;100.00
10852;BME280;5479;52.046;6.314;2022-12-18T09:37:27;102676.38;;;-3.13;100.00
10852;BME280;5479;52.046;6.314;2022-12-18T09:39:55;102672.84;;;-3.16;100.00
10852;BME280;5479;52.046;6.314;2022-12-18T09:42:25;102672.34;;;-3.01;100.00
10852;BME280;5479;52.046;6.314;2022-12-18T09:44:54;102672.59;;;-2.92;100.00
10852;BME280;5479;52.046;6.314;2022-12-18T09:47:24;102685.03;;;-2.79;100.00
10852;BME280;5479;52.046;6.314;2022-12-18T09:49:56;102677.44;;;-2.72;100.00
10852;BME280;5479;52.046;6.314;2022-12-18T09:52:29;102671.66;;;-2.60;100.00
10852;BME280;5479;52.046;6.314;2022-12-18T09:55:01;102671.75;;;-2.57;100.00
10852;BME280;5479;52.046;6.314;2022-12-18T09:57:32;102663.41;;;-2.44;100.00
10852;BME280;5479;52.046;6.314;2022-12-18T10:00:06;102666.84;;;-2.45;100.00
10852;BME280;5479;52.046;6.314;2022-12-18T10:02:37;102671.22;;;-2.42;100.00
10852;BME280;5479;52.046;6.314;2022-12-18T10:05:12;102668.44;;;-2.50;100.00
10852;BME280;5479;52.046;6.314;2022-12-18T10:07:54;102661.66;;;-2.45;100.00
10852;BME280;5479;52.046;6.314;2022-12-18T10:10:34;102667.41;;;-2.57;100.00
10852;BME280;5479;52.046;6.314;2022-12-18T10:13:12;102654.59;;;-2.51;100.00
10852;BME280;5479;52.046;6.314;2022-12-18T10:15:54;102645.69;;;-2.62;100.00
10852;BME280;5479;52.046;6.314;2022-12-18T10:19:00;102633.41;;;-2.69;100.00
10852;BME280;5479;52.046;6.314;2022-12-18T10:21:32;102629.22;;;-2.64;100.00
10852;BME280;5479;52.046;6.314;2022-12-18T10:24:14;102625.72;;;-2.66;100.00
10852;BME280;5479;52.046;6.314;2022-12-18T10:26:52;102627.69;;;-2.56;100.00
10852;BME280;5479;52.046;6.314;2022-12-18T10:29:21;102622.25;;;-2.66;100.00
10852;BME280;5479;52.046;6.314;2022-12-18T10:31:50;102611.88;;;-2.65;100.00
10852;BME280;5479;52.046;6.314;2022-12-18T10:34:18;102604.88;;;-2.69;100.00
10852;BME280;5479;52.046;6.314;2022-12-18T10:36:47;102606.84;;;-2.59;100.00
10852;BME280;5479;52.046;6.314;2022-12-18T10:39:19;102609.66;;;-2.50;100.00
10852;BME280;5479;52.046;6.314;2022-12-18T10:41:48;102598.50;;;-2.46;100.00
10852;BME280;5479;52.046;6.314;2022-12-18T10:44:18;102603.75;;;-2.44;100.00
10852;BME280;5479;52.046;6.314;2022-12-18T10:46:49;102595.31;;;-2.32;100.00
10852;BME280;5479;52.046;6.314;2022-12-18T10:49:21;102583.31;;;-2.29;100.00
10852;BME280;5479;52.046;6.314;2022-12-18T10:52:04;102574.47;;;-2.38;100.00
10852;BME280;5479;52.046;6.314;2022-12-18T10:54:34;102571.97;;;-2.34;100.00
10852;BME280;5479;52.046;6.314;2022-12-18T10:57:19;102565.88;;;-2.34;100.00
10852;BME280;5479;52.046;6.314;2022-12-18T10:59:59;102563.50;;;-2.25;100.00
10852;BME280;5479;52.046;6.314;2022-12-18T11:02:34;102546.38;;;-2.17;100.00
10852;BME280;5479;52.046;6.314;2022-12-18T11:05:22;102546.31;;;-2.19;100.00
10852;BME280;5479;52.046;6.314;2022-12-18T11:07:51;102559.28;;;-2.20;100.00
10852;BME280;5479;52.046;6.314;2022-12-18T11:10:28;102546.47;;;-2.11;100.00
10852;BME280;5479;52.046;6.314;2022-12-18T11:13:11;102552.66;;;-2.06;100.00
10852;BME280;5479;52.046;6.314;2022-12-18T11:15:40;102562.16;;;-2.07;100.00
10852;BME280;5479;52.046;6.314;2022-12-18T11:18:17;102558.81;;;-2.00;100.00
10852;BME280;5479;52.046;6.314;2022-12-18T11:20:51;102556.22;;;-2.01;100.00
10852;BME280;5479;52.046;6.314;2022-12-18T11:23:21;102568.53;;;-1.91;100.00
10852;BME280;5479;52.046;6.314;2022-12-18T11:25:54;102566.81;;;-1.89;100.00
10852;BME280;5479;52.046;6.314;2022-12-18T11:28:37;102546.94;;;-1.87;100.00
10852;BME280;5479;52.046;6.314;2022-12-18T11:31:15;102534.03;;;-1.84;100.00
10852;BME280;5479;52.046;6.314;2022-12-18T11:33:47;102539.34;;;-1.76;100.00
10852;BME280;5479;52.046;6.314;2022-12-18T11:36:18;102538.47;;;-1.78;100.00
10852;BME280;5479;52.046;6.314;2022-12-18T11:38:48;102539.47;;;-1.70;100.00
10852;BME280;5479;52.046;6.314;2022-12-18T11:41:24;102529.13;;;-1.69;100.00
10852;BME280;5479;52.046;6.314;2022-12-18T11:44:18;102516.22;;;-1.66;100.00
10852;BME280;5479;52.046;6.314;2022-12-18T11:46:55;102515.34;;;-1.65;100.00
10852;BME280;5479;52.046;6.314;2022-12-18T11:49:28;102514.63;;;-1.56;100.00
10852;BME280;5479;52.046;6.314;2022-12-18T11:52:00;102506.91;;;-1.53;100.00
10852;BME280;5479;52.046;6.314;2022-12-18T11:54:29;102508.50;;;-1.60;100.00
10852;BME280;5479;52.046;6.314;2022-12-18T11:57:09;102511.50;;;-1.37;100.00
10852;BME280;5479;52.046;6.314;2022-12-18T11:59:47;102501.00;;;-1.42;100.00
10852;BME280;5479;52.046;6.314;2022-12-18T12:02:39;102497.44;;;-1.48;100.00
10852;BME280;5479;52.046;6.314;2022-12-18T12:05:20;102495.09;;;-1.35;100.00
10852;BME280;5479;52.046;6.314;2022-12-18T12:07:58;102488.84;;;-1.46;100.00
10852;BME280;5479;52.046;6.314;2022-12-18T12:10:39;102479.38;;;-1.41;100.00
10852;BME280;5479;52.046;6.314;2022-12-18T12:13:23;102476.00;;;-1.37;100.00
10852;BME280;5479;52.046;6.314;2022-12-18T12:16:02;102468.31;;;-1.29;100.00
10852;BME280;5479;52.046;6.314;2022-12-18T12:18:44;102465.09;;;-1.13;100.00
10852;BME280;5479;52.046;6.314;2022-12-18T12:21:20;102462.59;;;-1.05;100.00
10852;BME280;5479;52.046;6.314;2022-12-18T12:23:53;102447.75;;;-1.15;100.00
10852;BME280;5479;52.046;6.314;2022-12-18T12:26:32;102448.53;;;-1.19;100.00
10852;BME280;5479;52.046;6.314;2022-12-18T12:29:14;102446.91;;;-1.11;100.00
10852;BME280;5479;52.046;6.314;2022-12-18T12:31:58;102448.84;;;-0.98;100.00
10852;BME280;5479;52.046;6.314;2022-12-18T12:34:34;102442.84;;;-0.94;100.00
10852;BME280;5479;52.046;6.314;2022-12-18T12:37:12;102453.41;;;-0.82;100.00
10852;BME280;5479;52.046;6.314;2022-12-18T12:39:45;102450.94;;;-0.73;100.00
10852;BME280;5479;52.046;6.314;2022-12-18T12:42:20;102449.91;;;-0.86;100.00
10852;BME280;5479;52.046;6.314;2022-12-18T12:45:17;102447.44;;;-0.75;100.00
10852;BME280;5479;52.046;6.314;2022-12-18T12:47:48;102454.31;;;-0.77;100.00
10852;BME280;5479;52.046;6.314;2022-12-18T12:50:19;102438.66;;;-0.80;100.00
10852;BME280;5479;52.046;6.314;2022-12-18T12:52:50;102452.59;;;-0.78;100.00
10852;BME280;5479;52.046;6.314;2022-12-18T12:55:22;102451.13;;;-0.58;100.00
10852;BME280;5479;52.046;6.314;2022-12-18T12:57:58;102435.31;;;-0.73;100.00
10852;BME280;5479;52.046;6.314;2022-12-18T13:00:35;102435.31;;;-0.73;100.00
10852;BME280;5479;52.046;6.314;2022-12-18T13:03:08;102426.59;;;-0.78;100.00
10852;BME280;5479;52.046;6.314;2022-12-18T13:05:45;102419.63;;;-0.79;100.00
10852;BME280;5479;52.046;6.314;2022-12-18T13:08:23;102417.94;;;-0.74;100.00
10852;BME280;5479;52.046;6.314;2022-12-18T13:10:52;102410.22;;;-0.67;100.00
10852;BME280;5479;52.046;6.314;2022-12-18T13:13:51;102410.31;;;-0.61;100.00